BES weather

Brest Bretagne Airport
Brest/Guipavas, Brittany, France

Public forecast

Using degrees Celsius for public forecast. Weather courtesy of forecast.io.

METAR (pilot weather report)

Retrieved 2019/07/22 07:30 UTC (2 minutes ago):

LFRB 220730Z AUTO 18008KT 9999 BKN009 18/16 Q1024 BECMG NSC

TAF (pilot weather forecast)

Retrieved 2019/07/22 06:21 UTC (1 hour ago):

TAF LFRB 220500Z 2206/2312 24005KT 9000 BKN005 PROB30 TEMPO 2206/2207 0800 BCFG BECMG 2207/2209 BKN011 TEMPO 2212/2215 VRB03KT BECMG 2215/2218 01007KT BECMG 2209/2212 CAVOK PROB30 TEMPO 2303/2306 4000 BR